Time;durP1;ratioP1;P1;durP2;ratioP2;P2;SDS_P1;SDS_P2;PMS_P1;PMS_P2;Temp;Humidity;BMP_temperature;BMP_pressure;BME280_temperature;BME280_humidity;BME280_pressure;Samples;Min_cycle;Max_cycle;Signal;HPM_P1;HPM_P2
2023/01/15 00:01:24;;;;;;;5.72;2.78;;;13.20;98.80;;;;;;5066018;28;20041;-75
2023/01/15 00:03:51;;;;;;;6.90;2.58;;;13.10;98.90;;;;;;5064354;28;20026;-73
2023/01/15 00:06:18;;;;;;;8.13;2.90;;;13.10;99.00;;;;;;5062817;28;20032;-76
2023/01/15 00:08:44;;;;;;;7.40;3.20;;;13.00;99.20;;;;;;5066361;28;20116;-74
2023/01/15 00:11:11;;;;;;;7.90;2.72;;;13.00;99.30;;;;;;5067063;28;20035;-75
2023/01/15 00:13:39;;;;;;;5.82;2.88;;;13.00;99.30;;;;;;5067866;28;20099;-73
2023/01/15 00:16:13;;;;;;;6.35;2.95;;;13.00;99.50;;;;;;5059193;28;20439;-74
2023/01/15 00:18:39;;;;;;;6.18;2.70;;;13.00;99.50;;;;;;5061604;28;20577;-74
2023/01/15 00:21:08;;;;;;;5.97;2.92;;;12.90;99.50;;;;;;5068674;28;20052;-74
2023/01/15 00:29:09;;;;;;;6.15;2.30;;;12.90;99.70;;;;;;5062294;28;20091;-73
2023/01/15 00:31:35;;;;;;;6.90;2.80;;;12.90;99.70;;;;;;5065178;28;20029;-74
2023/01/15 00:34:01;;;;;;;5.47;2.78;;;12.90;99.80;;;;;;5062256;28;20098;-74
2023/01/15 00:36:28;;;;;;;5.05;2.03;;;12.90;99.80;;;;;;5074253;28;20024;-74
2023/01/15 00:38:54;;;;;;;6.47;2.67;;;12.90;99.90;;;;;;5065221;28;20025;-74
2023/01/15 00:41:19;;;;;;;6.20;2.63;;;12.80;99.90;;;;;;5065859;28;20091;-74
2023/01/15 00:43:45;;;;;;;5.90;2.38;;;12.90;99.90;;;;;;5064343;28;20479;-74
2023/01/15 00:46:12;;;;;;;6.50;2.63;;;13.00;99.80;;;;;;5068581;28;20040;-74
2023/01/15 00:48:38;;;;;;;5.53;2.45;;;13.20;99.50;;;;;;5060668;28;20056;-74
2023/01/15 00:51:04;;;;;;;6.72;2.15;;;13.30;99.30;;;;;;5068188;28;20024;-74
2023/01/15 00:53:30;;;;;;;4.43;1.83;;;13.30;99.10;;;;;;5065071;28;20032;-76
2023/01/15 00:55:56;;;;;;;6.30;2.45;;;13.40;99.00;;;;;;5050065;28;20502;-73
2023/01/15 00:58:22;;;;;;;8.52;2.53;;;13.40;98.90;;;;;;5063862;28;20029;-74
2023/01/15 01:00:56;;;;;;;5.43;2.25;;;13.40;98.80;;;;;;5062226;28;20028;-74
2023/01/15 01:03:23;;;;;;;6.10;2.13;;;13.40;98.90;;;;;;5065802;28;20035;-75
2023/01/15 01:05:49;;;;;;;8.32;3.05;;;13.30;98.90;;;;;;5066963;28;20086;-74
2023/01/15 01:08:16;;;;;;;6.72;2.63;;;13.30;99.00;;;;;;5063294;28;20036;-74
2023/01/15 01:10:43;;;;;;;7.28;2.90;;;13.10;99.40;;;;;;5065049;28;20044;-74
2023/01/15 01:13:11;;;;;;;6.32;2.85;;;13.00;99.40;;;;;;5068027;28;20033;-74
2023/01/15 01:15:37;;;;;;;6.13;2.63;;;12.90;99.60;;;;;;5069313;28;20055;-74
2023/01/15 01:18:04;;;;;;;6.47;2.58;;;12.80;99.80;;;;;;5065914;28;20020;-76
2023/01/15 01:20:31;;;;;;;7.00;2.95;;;12.80;99.80;;;;;;5051589;28;20040;-74
2023/01/15 01:22:57;;;;;;;5.63;2.25;;;12.70;99.90;;;;;;5061956;28;20509;-74
2023/01/15 01:25:23;;;;;;;5.60;2.50;;;12.70;99.80;;;;;;5065034;28;20029;-74
2023/01/15 01:27:49;;;;;;;6.18;2.53;;;12.70;99.70;;;;;;5061925;28;20036;-74
2023/01/15 01:30:15;;;;;;;5.15;2.47;;;12.70;99.70;;;;;;5063642;28;20056;-73
2023/01/15 01:32:45;;;;;;;6.18;2.70;;;12.70;99.70;;;;;;5061146;28;20028;-74
2023/01/15 01:35:11;;;;;;;6.72;2.67;;;12.60;99.80;;;;;;5064774;28;20403;-74
2023/01/15 01:37:37;;;;;;;6.60;3.10;;;12.60;99.90;;;;;;5060530;28;20151;-74
2023/01/15 01:40:04;;;;;;;8.05;3.40;;;12.60;99.90;;;;;;5050159;28;20102;-75
2023/01/15 01:42:30;;;;;;;7.47;3.17;;;12.50;99.90;;;;;;5068328;28;20029;-73
2023/01/15 01:45:17;;;;;;;6.25;2.92;;;12.50;99.90;;;;;;5061857;28;20033;-75
2023/01/15 01:47:46;;;;;;;7.40;3.00;;;12.50;99.90;;;;;;5060249;28;20032;-74
2023/01/15 01:50:13;;;;;;;6.03;2.45;;;12.50;99.90;;;;;;5065055;28;20775;-75
2023/01/15 01:52:47;;;;;;;4.90;2.00;;;12.70;99.90;;;;;;5065940;28;20056;-74
2023/01/15 01:55:17;;;;;;;7.85;2.30;;;12.70;99.70;;;;;;5057456;28;20035;-75
2023/01/15 01:57:44;;;;;;;7.47;2.20;;;12.80;99.60;;;;;;5063679;28;20058;-74
2023/01/15 02:00:12;;;;;;;6.10;1.80;;;12.70;99.60;;;;;;5066092;28;20032;-75
2023/01/15 02:02:41;;;;;;;5.55;2.10;;;12.80;99.50;;;;;;5051263;28;20044;-74
2023/01/15 02:05:08;;;;;;;6.03;2.53;;;12.70;99.50;;;;;;5058910;28;20530;-74
2023/01/15 02:07:34;;;;;;;5.80;2.25;;;12.70;99.50;;;;;;5066797;28;20036;-74
2023/01/15 02:10:00;;;;;;;5.18;2.00;;;12.60;99.60;;;;;;5059361;28;20033;-74
2023/01/15 02:12:38;;;;;;;5.70;2.58;;;12.60;99.60;;;;;;5063352;28;20028;-75
2023/01/15 02:15:11;;;;;;;6.03;2.17;;;12.70;99.60;;;;;;5064362;28;20093;-75
2023/01/15 02:17:47;;;;;;;4.50;1.73;;;12.60;99.60;;;;;;5060398;28;20029;-74
2023/01/15 02:20:30;;;;;;;6.15;2.17;;;12.80;99.50;;;;;;5062802;28;20028;-74
2023/01/15 02:23:08;;;;;;;6.63;2.60;;;12.80;99.40;;;;;;5078193;28;20028;-74
2023/01/15 02:26:10;;;;;;;4.72;1.77;;;12.80;99.30;;;;;;5060086;28;20028;-75
2023/01/15 02:28:46;;;;;;;5.07;1.92;;;12.90;99.30;;;;;;5061927;28;20040;-74
2023/01/15 02:31:17;;;;;;;4.75;1.48;;;12.90;99.20;;;;;;5063992;28;20113;-75
2023/01/15 02:34:13;;;;;;;4.35;1.55;;;12.90;99.10;;;;;;5062799;28;20043;-74
2023/01/15 02:36:44;;;;;;;4.60;1.52;;;12.90;99.30;;;;;;5048444;28;20468;-74
2023/01/15 02:39:14;;;;;;;4.07;1.70;;;13.00;99.10;;;;;;5067395;28;20017;-75
2023/01/15 02:41:44;;;;;;;6.50;1.70;;;13.00;99.10;;;;;;5061973;28;20024;-75
2023/01/15 02:44:12;;;;;;;4.07;1.60;;;13.00;99.20;;;;;;5062472;28;20326;-75
2023/01/15 02:46:40;;;;;;;3.25;1.40;;;13.10;99.10;;;;;;5057913;28;20032;-74
2023/01/15 02:49:08;;;;;;;3.70;1.40;;;13.20;99.10;;;;;;5064109;28;20033;-74
2023/01/15 02:52:03;;;;;;;3.70;1.48;;;13.10;99.10;;;;;;5058215;28;20459;-75
2023/01/15 02:54:38;;;;;;;4.63;1.70;;;13.10;99.20;;;;;;5058908;28;20045;-74
2023/01/15 02:57:05;;;;;;;5.90;1.50;;;13.10;99.10;;;;;;5048302;28;20043;-73
2023/01/15 02:59:37;;;;;;;3.80;1.33;;;13.20;99.00;;;;;;5064975;28;20547;-75
2023/01/15 03:02:09;;;;;;;4.25;1.70;;;13.30;98.90;;;;;;5056161;28;20519;-74
2023/01/15 03:04:47;;;;;;;4.32;1.52;;;13.40;98.80;;;;;;5057362;28;20032;-75
2023/01/15 03:07:41;;;;;;;3.50;1.05;;;13.40;98.70;;;;;;5063769;28;20123;-74
2023/01/15 03:10:08;;;;;;;4.22;1.52;;;13.40;98.70;;;;;;5048403;28;20491;-74
2023/01/15 03:13:01;;;;;;;4.78;1.70;;;13.30;98.70;;;;;;5069603;28;21037;-74
2023/01/15 03:18:20;;;;;;;4.10;1.60;;;13.40;98.80;;;;;;5064026;28;20109;-74
2023/01/15 03:20:51;;;;;;;4.53;1.70;;;13.40;98.80;;;;;;5065491;28;20033;-73
2023/01/15 03:23:21;;;;;;;3.85;1.40;;;13.40;98.70;;;;;;5062767;28;20025;-74
2023/01/15 03:25:48;;;;;;;3.72;1.35;;;13.40;98.80;;;;;;5067779;28;20029;-74
2023/01/15 03:28:20;;;;;;;3.85;1.63;;;13.40;98.90;;;;;;5066283;28;20144;-74
2023/01/15 03:30:46;;;;;;;4.18;1.73;;;13.40;98.70;;;;;;5081825;28;20025;-74
2023/01/15 03:33:14;;;;;;;3.00;1.20;;;13.40;98.70;;;;;;5062490;28;20079;-75
2023/01/15 03:35:51;;;;;;;5.30;1.60;;;13.50;98.60;;;;;;5062632;28;20024;-74
2023/01/15 03:38:21;;;;;;;3.42;1.30;;;13.60;98.50;;;;;;5068522;28;20541;-73
2023/01/15 03:41:15;;;;;;;4.97;1.52;;;13.70;98.50;;;;;;5065402;28;20687;-75
2023/01/15 03:44:12;;;;;;;3.40;1.23;;;13.70;98.30;;;;;;5077355;28;20024;-75
2023/01/15 03:46:48;;;;;;;4.15;1.65;;;13.80;98.30;;;;;;5061491;28;20044;-74
2023/01/15 03:49:41;;;;;;;3.15;1.00;;;13.80;98.30;;;;;;5074827;28;20559;-74
2023/01/15 03:52:16;;;;;;;6.30;1.40;;;14.00;98.10;;;;;;5068638;28;20028;-74
2023/01/15 03:54:51;;;;;;;2.90;1.05;;;14.00;98.20;;;;;;5062770;28;20035;-74
2023/01/15 03:57:34;;;;;;;3.50;1.10;;;13.90;98.20;;;;;;5064166;28;20036;-73
2023/01/15 04:00:08;;;;;;;3.38;1.30;;;13.90;98.30;;;;;;5067913;28;20052;-73
2023/01/15 04:02:37;;;;;;;7.38;1.50;;;13.90;98.40;;;;;;5049225;28;20027;-74
2023/01/15 04:05:03;;;;;;;3.28;1.30;;;13.90;98.40;;;;;;5064365;28;20483;-75
2023/01/15 04:07:31;;;;;;;5.20;1.50;;;13.70;98.60;;;;;;5062846;28;20178;-73
2023/01/15 04:09:57;;;;;;;5.05;1.65;;;13.70;98.60;;;;;;5048574;28;20036;-74
2023/01/15 04:12:22;;;;;;;4.60;1.60;;;13.60;98.70;;;;;;5059831;28;20037;-73
2023/01/15 04:14:48;;;;;;;4.95;1.50;;;13.60;98.70;;;;;;5061866;28;20036;-73
2023/01/15 04:17:14;;;;;;;4.90;1.60;;;13.50;98.90;;;;;;5062523;28;20035;-73
2023/01/15 04:19:43;;;;;;;4.28;2.10;;;13.60;99.00;;;;;;5065468;28;20032;-74
2023/01/15 04:22:10;;;;;;;4.45;1.20;;;13.60;99.00;;;;;;5060849;28;20055;-73
2023/01/15 04:24:37;;;;;;;4.90;1.75;;;13.70;98.80;;;;;;5063507;28;20076;-74
2023/01/15 04:27:02;;;;;;;7.57;1.67;;;13.60;98.90;;;;;;5063305;28;20120;-73
2023/01/15 04:29:28;;;;;;;5.97;1.65;;;13.60;98.90;;;;;;5062623;28;20115;-74
2023/01/15 04:31:56;;;;;;;4.60;1.33;;;13.70;98.80;;;;;;5064252;28;20040;-74
2023/01/15 04:34:27;;;;;;;8.05;1.73;;;13.70;98.80;;;;;;5061381;28;20021;-74
2023/01/15 04:36:55;;;;;;;4.10;1.20;;;13.60;98.80;;;;;;5062565;28;20029;-74
2023/01/15 04:39:22;;;;;;;3.65;1.50;;;13.70;98.90;;;;;;5063221;28;20056;-74
2023/01/15 04:44:33;;;;;;;5.88;1.83;;;13.70;98.90;;;;;;5060288;28;20063;-74
2023/01/15 04:46:59;;;;;;;6.45;1.52;;;13.60;98.90;;;;;;5060390;28;20400;-73
2023/01/15 04:49:26;;;;;;;4.20;1.67;;;13.50;99.00;;;;;;5069449;28;20053;-74
2023/01/15 04:51:52;;;;;;;6.30;1.70;;;13.60;99.00;;;;;;5039104;28;20048;-74
2023/01/15 04:54:18;;;;;;;4.60;1.77;;;13.50;99.10;;;;;;5067254;28;20036;-73
2023/01/15 04:56:49;;;;;;;6.10;1.83;;;13.50;99.00;;;;;;5067789;28;20024;-74
2023/01/15 04:59:19;;;;;;;4.45;1.95;;;13.50;99.10;;;;;;5065557;28;20028;-74
2023/01/15 05:01:45;;;;;;;4.43;1.63;;;13.40;99.10;;;;;;5066186;28;20090;-73
2023/01/15 05:04:11;;;;;;;4.03;1.65;;;13.40;99.10;;;;;;5066714;28;20467;-74
2023/01/15 05:06:37;;;;;;;6.10;1.88;;;13.30;99.20;;;;;;5067783;28;20025;-74
2023/01/15 05:09:03;;;;;;;5.18;1.60;;;13.30;99.20;;;;;;5065431;28;20040;-74
2023/01/15 05:11:30;;;;;;;3.38;1.42;;;13.30;99.20;;;;;;5065859;28;20889;-74
2023/01/15 05:13:55;;;;;;;4.43;1.45;;;13.40;99.20;;;;;;5065181;28;20472;-73
2023/01/15 05:16:23;;;;;;;4.05;1.70;;;13.30;99.20;;;;;;5062935;28;20113;-74
2023/01/15 05:18:51;;;;;;;4.20;2.00;;;13.30;99.20;;;;;;5063728;28;20091;-73
2023/01/15 05:21:24;;;;;;;5.07;1.83;;;13.20;99.40;;;;;;5060891;28;20025;-73
2023/01/15 05:23:52;;;;;;;5.05;1.77;;;13.20;99.40;;;;;;5066409;28;20025;-73
2023/01/15 05:26:20;;;;;;;5.38;1.50;;;13.20;99.70;;;;;;5062918;28;20032;-74
2023/01/15 05:28:47;;;;;;;5.18;1.70;;;13.10;99.50;;;;;;5049401;28;20036;-73
2023/01/15 05:31:18;;;;;;;5.55;2.00;;;13.10;99.80;;;;;;5066787;28;20032;-73
2023/01/15 05:33:46;;;;;;;5.80;2.00;;;13.10;99.50;;;;;;5064722;28;20017;-73
2023/01/15 05:36:15;;;;;;;4.80;2.03;;;13.20;99.60;;;;;;5071865;28;20021;-73
2023/01/15 05:38:41;;;;;;;4.28;1.88;;;13.10;99.80;;;;;;5063800;28;20029;-73
2023/01/15 05:44:01;;;;;;;5.85;1.73;;;13.00;99.70;;;;;;5066790;28;20035;-74
2023/01/15 05:46:28;;;;;;;5.65;2.30;;;13.00;99.70;;;;;;5065056;28;20091;-73
2023/01/15 05:48:59;;;;;;;5.03;2.10;;;12.90;99.80;;;;;;5069344;28;20399;-73
2023/01/15 05:51:24;;;;;;;4.75;2.35;;;12.90;99.80;;;;;;5063597;28;20056;-74
2023/01/15 05:53:52;;;;;;;5.10;2.33;;;12.90;99.80;;;;;;5063549;28;20025;-74
2023/01/15 05:56:17;;;;;;;4.97;1.88;;;12.90;99.70;;;;;;5062664;28;20043;-74
2023/01/15 05:58:43;;;;;;;4.35;1.52;;;12.90;99.80;;;;;;5058620;28;20145;-75
2023/01/15 06:01:10;;;;;;;4.57;2.00;;;12.90;99.70;;;;;;5067465;28;20083;-73
2023/01/15 06:03:37;;;;;;;4.43;1.67;;;12.80;99.80;;;;;;5063712;28;20028;-73
2023/01/15 06:06:03;;;;;;;5.15;2.30;;;12.90;99.60;;;;;;5064489;28;20074;-74
2023/01/15 06:08:29;;;;;;;4.03;2.17;;;13.00;99.50;;;;;;5060539;28;20798;-74
2023/01/15 06:10:55;;;;;;;6.45;2.03;;;13.00;99.40;;;;;;5066478;28;20040;-73
2023/01/15 06:13:21;;;;;;;5.20;2.22;;;13.10;99.30;;;;;;5063781;28;20103;-74
2023/01/15 06:15:47;;;;;;;5.15;2.17;;;13.20;99.10;;;;;;5063742;28;20458;-74
2023/01/15 06:18:13;;;;;;;5.60;2.17;;;13.20;99.10;;;;;;5062571;28;20060;-73
2023/01/15 06:20:39;;;;;;;4.90;2.15;;;13.10;99.10;;;;;;5063864;28;20029;-74
2023/01/15 06:23:05;;;;;;;5.78;2.42;;;13.10;99.10;;;;;;5063164;28;20535;-73
2023/01/15 06:25:36;;;;;;;6.22;2.42;;;13.20;99.10;;;;;;5060107;28;20107;-73
2023/01/15 06:28:06;;;;;;;5.88;2.22;;;13.10;99.00;;;;;;5076210;28;20467;-73
2023/01/15 06:30:33;;;;;;;4.30;2.20;;;13.10;99.10;;;;;;5064007;28;20062;-74
2023/01/15 06:33:00;;;;;;;5.20;2.22;;;13.10;99.20;;;;;;5059862;28;20108;-73
2023/01/15 06:35:26;;;;;;;5.22;2.55;;;13.10;99.20;;;;;;5062295;28;20040;-73
2023/01/15 06:37:52;;;;;;;5.43;2.00;;;13.00;99.20;;;;;;5058001;28;20083;-73
2023/01/15 06:40:19;;;;;;;5.97;2.50;;;13.00;99.20;;;;;;5060702;28;20031;-73
2023/01/15 06:48:22;;;;;;;5.85;2.17;;;13.20;98.90;;;;;;5058938;28;20031;-73
2023/01/15 06:50:48;;;;;;;5.07;2.60;;;13.20;98.80;;;;;;5061534;28;20546;-74
2023/01/15 06:53:15;;;;;;;5.38;2.40;;;13.10;98.90;;;;;;5063733;28;20035;-73
2023/01/15 06:55:41;;;;;;;5.68;2.15;;;13.10;99.00;;;;;;5062558;28;20486;-74
2023/01/15 06:58:07;;;;;;;5.55;2.58;;;13.00;99.00;;;;;;5061643;28;20037;-74
2023/01/15 07:00:33;;;;;;;5.10;2.28;;;12.90;99.10;;;;;;5062216;28;20037;-75
2023/01/15 07:03:00;;;;;;;6.25;2.15;;;13.00;99.20;;;;;;5065675;28;20072;-74
2023/01/15 07:05:27;;;;;;;5.75;1.98;;;12.90;99.30;;;;;;5063704;28;20498;-74
2023/01/15 07:07:53;;;;;;;5.13;2.35;;;12.90;99.20;;;;;;5059990;28;20664;-74
2023/01/15 07:10:19;;;;;;;5.47;2.30;;;12.90;99.10;;;;;;5075127;28;20028;-73
2023/01/15 07:12:45;;;;;;;5.63;2.63;;;12.90;99.10;;;;;;5058552;28;20040;-74
2023/01/15 07:15:11;;;;;;;6.68;2.28;;;12.90;99.10;;;;;;5066522;28;20624;-74
2023/01/15 07:17:37;;;;;;;6.93;2.10;;;12.90;99.10;;;;;;5061990;28;20048;-73
2023/01/15 07:20:04;;;;;;;6.10;2.72;;;13.00;99.00;;;;;;5057974;28;20407;-74
2023/01/15 07:22:31;;;;;;;8.50;2.30;;;13.00;98.90;;;;;;5060443;28;20039;-73
2023/01/15 07:24:56;;;;;;;;;;;12.90;98.90;;;;;;5060013;28;20025;-74
2023/01/15 07:27:23;;;;;;;6.55;2.50;;;13.00;98.90;;;;;;5067511;28;19924;-74
2023/01/15 07:29:50;;;;;;;6.32;2.17;;;12.90;98.90;;;;;;5066042;28;20036;-74
2023/01/15 07:32:18;;;;;;;5.55;2.10;;;12.90;98.90;;;;;;5058673;28;20442;-73
2023/01/15 07:34:44;;;;;;;6.15;2.30;;;12.90;98.90;;;;;;5067194;28;20503;-73
2023/01/15 07:37:10;;;;;;;5.32;2.25;;;12.90;98.80;;;;;;5060505;28;20036;-73
2023/01/15 07:39:37;;;;;;;5.38;1.73;;;13.00;98.90;;;;;;5060638;28;20033;-74
2023/01/15 07:50:19;;;;;;;6.13;2.47;;;12.80;99.10;;;;;;5060251;28;20097;-73
2023/01/15 07:52:45;;;;;;;6.38;2.45;;;12.80;99.10;;;;;;5071656;28;20052;-74
2023/01/15 07:55:12;;;;;;;6.15;2.80;;;12.80;99.10;;;;;;5067016;28;20384;-74
2023/01/15 07:57:41;;;;;;;4.88;2.50;;;12.90;99.10;;;;;;5064549;28;20037;-74
2023/01/15 08:00:10;;;;;;;6.30;2.63;;;12.90;99.00;;;;;;5062591;28;20032;-74
2023/01/15 08:02:36;;;;;;;5.63;2.38;;;12.90;99.10;;;;;;5064109;28;20044;-74
2023/01/15 08:05:02;;;;;;;6.22;2.65;;;12.90;99.00;;;;;;5069112;28;20017;-74
2023/01/15 08:07:27;;;;;;;9.25;2.80;;;12.90;99.10;;;;;;5067516;28;20055;-74
2023/01/15 08:09:53;;;;;;;5.32;2.53;;;12.90;99.00;;;;;;5068699;28;20101;-74
2023/01/15 08:15:14;;;;;;;6.53;2.83;;;12.90;99.00;;;;;;5065425;28;20039;-74
2023/01/15 08:17:45;;;;;;;6.10;2.60;;;13.00;98.90;;;;;;5080070;28;20071;-74
2023/01/15 08:20:17;;;;;;;6.15;2.67;;;13.00;98.90;;;;;;5069241;28;20052;-74
2023/01/15 08:22:44;;;;;;;4.75;2.35;;;12.90;99.00;;;;;;5046107;28;20021;-74
2023/01/15 08:25:12;;;;;;;6.68;3.10;;;12.90;99.00;;;;;;5069820;28;20036;-73
2023/01/15 08:27:41;;;;;;;6.03;2.50;;;12.90;99.00;;;;;;5066728;28;20051;-74
2023/01/15 08:30:11;;;;;;;11.57;3.13;;;13.00;99.00;;;;;;5060419;28;20025;-75
2023/01/15 08:32:37;;;;;;;4.85;2.33;;;13.10;98.80;;;;;;5061198;28;20028;-74
2023/01/15 08:35:03;;;;;;;7.72;2.97;;;13.10;98.70;;;;;;5064860;28;20111;-75
2023/01/15 08:37:29;;;;;;;5.65;2.60;;;13.10;98.70;;;;;;5047844;28;20080;-74
2023/01/15 08:39:58;;;;;;;6.75;2.42;;;13.30;98.60;;;;;;5067576;28;20063;-74
2023/01/15 08:42:24;;;;;;;7.40;3.03;;;13.40;98.30;;;;;;5064309;28;20063;-76
2023/01/15 08:44:49;;;;;;;7.20;2.70;;;14.00;97.90;;;;;;5067883;28;20064;-75
2023/01/15 08:47:16;;;;;;;6.70;3.03;;;14.40;97.20;;;;;;5069162;28;20035;-74
2023/01/15 08:49:45;;;;;;;7.78;3.42;;;13.60;97.80;;;;;;5061449;28;20060;-74
2023/01/15 08:52:10;;;;;;;8.07;3.10;;;13.30;98.40;;;;;;5064280;28;20127;-74
2023/01/15 08:54:36;;;;;;;8.32;3.15;;;13.20;98.60;;;;;;5064865;28;20089;-75
2023/01/15 08:57:02;;;;;;;6.38;3.10;;;13.40;98.50;;;;;;5063884;28;20459;-74
2023/01/15 08:59:29;;;;;;;7.38;2.97;;;13.40;98.30;;;;;;5059380;28;20036;-77
2023/01/15 09:01:54;;;;;;;9.98;4.07;;;13.30;98.30;;;;;;5068530;28;20539;-74
2023/01/15 09:04:20;;;;;;;6.43;3.28;;;13.30;98.50;;;;;;5062820;28;20029;-74
2023/01/15 09:06:48;;;;;;;8.52;2.80;;;13.20;98.50;;;;;;5059696;28;20116;-74
2023/01/15 09:09:13;;;;;;;7.65;3.30;;;13.20;98.60;;;;;;5062476;28;20052;-75
2023/01/15 09:11:40;;;;;;;7.65;3.67;;;13.10;98.50;;;;;;5066917;28;20029;-75
2023/01/15 09:14:07;;;;;;;6.13;3.13;;;13.00;98.70;;;;;;5061800;28;20044;-75
2023/01/15 09:16:35;;;;;;;;;;;13.10;98.70;;;;;;5061695;28;20032;-74
2023/01/15 09:19:01;;;;;;;8.30;3.83;;;13.10;98.60;;;;;;5067435;28;19997;-75
2023/01/15 09:21:28;;;;;;;9.20;4.50;;;13.20;98.50;;;;;;5066056;28;20480;-75
2023/01/15 09:23:55;;;;;;;9.00;3.65;;;13.30;98.40;;;;;;5063085;28;20488;-75
2023/01/15 09:26:27;;;;;;;8.70;3.40;;;13.50;98.20;;;;;;5068824;28;20060;-74
2023/01/15 09:28:53;;;;;;;6.70;3.55;;;13.70;98.10;;;;;;5061990;28;20028;-75
2023/01/15 09:31:20;;;;;;;6.93;3.70;;;13.80;97.90;;;;;;5063600;28;20024;-74
2023/01/15 09:33:46;;;;;;;8.48;4.25;;;13.60;98.00;;;;;;5067738;28;20055;-74
2023/01/15 09:36:26;;;;;;;8.05;4.32;;;13.50;98.20;;;;;;5060079;28;20688;-74
2023/01/15 09:38:52;;;;;;;8.48;4.07;;;13.30;98.30;;;;;;5047527;28;20044;-74
2023/01/15 09:44:51;;;;;;;8.60;4.10;;;13.20;98.80;;;;;;5059856;28;20019;-73
2023/01/15 09:47:25;;;;;;;8.23;4.10;;;13.30;98.60;;;;;;5027911;28;20048;-76
2023/01/15 09:50:04;;;;;;;7.65;3.97;;;13.30;98.50;;;;;;5060665;28;20021;-74
2023/01/15 09:52:48;;;;;;;7.68;3.92;;;13.40;98.40;;;;;;5062384;28;20054;-74
2023/01/15 09:55:23;;;;;;;6.88;3.85;;;13.50;98.30;;;;;;5065589;28;20394;-74
2023/01/15 09:57:55;;;;;;;7.80;4.07;;;13.70;97.90;;;;;;5077257;28;20134;-74
2023/01/15 10:00:23;;;;;;;9.02;4.35;;;13.70;98.10;;;;;;5046395;28;20484;-74
2023/01/15 10:02:49;;;;;;;8.73;4.43;;;13.80;98.00;;;;;;5061074;28;20029;-74
2023/01/15 10:05:27;;;;;;;9.18;4.57;;;14.10;97.80;;;;;;5060803;28;20021;-74
2023/01/15 10:08:03;;;;;;;9.13;4.82;;;14.90;96.70;;;;;;5060185;28;20040;-74
2023/01/15 10:10:40;;;;;;;8.50;4.55;;;15.40;96.30;;;;;;5061344;28;20029;-75
2023/01/15 10:13:29;;;;;;;8.00;4.90;;;15.90;95.60;;;;;;5060882;28;20024;-75
2023/01/15 10:15:57;;;;;;;8.45;4.15;;;16.30;94.90;;;;;;5057310;28;20036;-75
2023/01/15 10:18:25;;;;;;;9.65;5.43;;;16.40;94.90;;;;;;5060051;28;20043;-74
2023/01/15 10:21:09;;;;;;;8.65;4.85;;;16.30;95.00;;;;;;5060602;28;20063;-75
2023/01/15 10:24:01;;;;;;;8.02;4.43;;;16.60;94.40;;;;;;5061081;28;20051;-74
2023/01/15 10:26:57;;;;;;;8.23;4.90;;;16.30;94.60;;;;;;5063601;28;20059;-74
2023/01/15 10:29:46;;;;;;;7.90;4.55;;;16.80;94.60;;;;;;5065534;28;20056;-74
2023/01/15 10:32:22;;;;;;;7.60;4.22;;;17.60;93.80;;;;;;5060752;28;20383;-73
2023/01/15 10:35:20;;;;;;;7.78;4.93;;;17.20;93.80;;;;;;5057892;28;20024;-76
2023/01/15 10:38:12;;;;;;;8.48;5.20;;;17.80;93.60;;;;;;5062524;28;20043;-75
2023/01/15 10:41:29;;;;;;;8.52;5.18;;;18.20;92.90;;;;;;5067747;28;20556;-75
2023/01/15 10:44:01;;;;;;;7.00;4.25;;;18.80;92.70;;;;;;5026304;28;20064;-76
2023/01/15 10:46:36;;;;;;;7.50;4.65;;;18.90;92.20;;;;;;5066326;28;20024;-75
2023/01/15 10:49:09;;;;;;;9.80;5.18;;;19.20;91.80;;;;;;5058193;28;20997;-75
2023/01/15 10:51:46;;;;;;;9.73;4.85;;;19.50;92.00;;;;;;5060002;28;20099;-75
2023/01/15 10:54:22;;;;;;;7.65;4.85;;;19.80;91.50;;;;;;5063559;28;20064;-74
2023/01/15 10:57:08;;;;;;;7.15;4.85;;;19.40;91.70;;;;;;5062773;28;20492;-75
2023/01/15 10:59:49;;;;;;;8.60;4.68;;;19.10;91.50;;;;;;5054851;28;20487;-75
2023/01/15 11:02:38;;;;;;;6.38;3.97;;;19.20;91.90;;;;;;5058699;28;20033;-75
2023/01/15 11:05:04;;;;;;;6.68;3.67;;;19.60;91.70;;;;;;5061249;28;20054;-73
2023/01/15 11:07:52;;;;;;;6.32;3.90;;;19.50;91.40;;;;;;5068635;28;20036;-73
2023/01/15 11:10:20;;;;;;;8.38;5.10;;;19.10;91.60;;;;;;5061326;28;20052;-75
2023/01/15 11:21:22;;;;;;;6.95;4.60;;;20.20;91.00;;;;;;5063128;28;20032;-74
2023/01/15 11:23:49;;;;;;;6.95;4.55;;;20.60;90.50;;;;;;5058777;28;20037;-74
2023/01/15 11:26:25;;;;;;;6.30;3.78;;;19.40;91.10;;;;;;5062587;28;20040;-73
2023/01/15 11:28:53;;;;;;;7.53;4.57;;;19.00;91.40;;;;;;5064055;28;20025;-74
2023/01/15 11:31:18;;;;;;;6.88;4.57;;;18.60;92.00;;;;;;5063948;28;20036;-75
2023/01/15 11:34:06;;;;;;;8.15;4.80;;;19.20;91.80;;;;;;5064177;28;20103;-73
2023/01/15 11:36:33;;;;;;;8.32;3.80;;;20.70;91.00;;;;;;5066405;28;20036;-75
2023/01/15 11:38:59;;;;;;;6.95;4.13;;;20.80;90.10;;;;;;5064502;28;20024;-73
2023/01/15 11:52:41;;;;;;;7.30;4.13;;;18.90;91.80;;;;;;5060592;28;20163;-74
2023/01/15 11:55:13;;;;;;;7.72;4.45;;;18.80;91.90;;;;;;5061687;28;20612;-74
2023/01/15 11:57:39;;;;;;;6.55;3.92;;;19.60;92.00;;;;;;5062285;28;20103;-74
2023/01/15 12:00:06;;;;;;;;;;;20.60;90.60;;;;;;5061441;28;20154;-74
2023/01/15 12:02:59;;;;;;;9.57;4.15;;;20.90;90.50;;;;;;5065004;28;19912;-75
2023/01/15 12:05:26;;;;;;;6.90;4.05;;;21.80;90.00;;;;;;5062873;28;20033;-74
2023/01/15 12:08:01;;;;;;;6.72;3.63;;;22.60;88.70;;;;;;5063222;28;20463;-75
2023/01/15 12:13:48;;;;;;;6.80;3.80;;;23.50;87.10;;;;;;5063941;28;20063;-74
2023/01/15 12:16:39;;;;;;;6.10;3.25;;;22.70;85.70;;;;;;5060931;28;20072;-75
2023/01/15 12:19:16;;;;;;;6.35;3.60;;;22.00;86.40;;;;;;5061243;28;20086;-74
2023/01/15 12:21:56;;;;;;;7.05;3.58;;;21.80;86.70;;;;;;5063115;28;20058;-76
2023/01/15 12:24:46;;;;;;;8.30;4.03;;;21.80;87.30;;;;;;5063744;28;20032;-74
2023/01/15 12:27:37;;;;;;;5.22;3.55;;;22.70;85.70;;;;;;5061173;28;20049;-75
2023/01/15 12:30:34;;;;;;;6.25;3.78;;;23.70;84.90;;;;;;5054977;28;20075;-74
2023/01/15 12:33:06;;;;;;;;;;;23.40;84.70;;;;;;5064611;28;20017;-74
2023/01/15 12:35:36;;;;;;;6.15;3.85;;;23.00;85.00;;;;;;5061672;28;19928;-74
2023/01/15 12:38:16;;;;;;;6.97;4.70;;;23.00;85.30;;;;;;5045037;28;20052;-74
2023/01/15 12:40:51;;;;;;;8.07;4.68;;;23.50;85.10;;;;;;5064663;28;20063;-74
2023/01/15 12:46:21;;;;;;;8.95;5.50;;;25.80;86.20;;;;;;5060769;28;20028;-76
2023/01/15 12:49:15;;;;;;;10.40;5.97;;;25.70;86.20;;;;;;5064678;28;20074;-75
2023/01/15 12:52:08;;;;;;;8.93;5.93;;;25.60;87.10;;;;;;5055600;28;20060;-75
2023/01/15 12:54:40;;;;;;;8.82;6.07;;;25.80;88.50;;;;;;5071876;28;20476;-75
2023/01/15 12:57:14;;;;;;;10.98;5.72;;;26.20;88.50;;;;;;5065779;28;20048;-76
2023/01/15 12:59:58;;;;;;;8.88;6.07;;;26.60;88.20;;;;;;5061785;28;20047;-75
2023/01/15 13:02:53;;;;;;;10.23;5.70;;;26.90;87.50;;;;;;5059780;28;20770;-75
2023/01/15 13:05:34;;;;;;;8.95;5.60;;;26.80;86.60;;;;;;5061820;28;20027;-76
2023/01/15 13:08:09;;;;;;;10.70;5.88;;;27.00;86.90;;;;;;5061806;28;20500;-75
2023/01/15 13:10:39;;;;;;;11.52;6.88;;;26.90;86.80;;;;;;5062343;28;20384;-74
2023/01/15 13:13:32;;;;;;;10.27;6.38;;;27.30;85.90;;;;;;5059076;28;20037;-74
2023/01/15 13:16:21;;;;;;;8.25;5.55;;;27.60;85.60;;;;;;5057704;28;20473;-74
2023/01/15 13:19:09;;;;;;;10.88;6.10;;;27.10;86.40;;;;;;5064233;28;20480;-74
2023/01/15 13:21:38;;;;;;;10.48;5.65;;;27.40;86.10;;;;;;5062543;28;20064;-74
2023/01/15 13:24:13;;;;;;;11.23;6.28;;;27.00;85.60;;;;;;5057535;28;20424;-74
2023/01/15 13:27:08;;;;;;;9.07;5.78;;;26.90;86.20;;;;;;5074064;28;20032;-74
2023/01/15 13:29:40;;;;;;;8.73;5.18;;;26.10;86.50;;;;;;5064942;28;20353;-74
2023/01/15 13:32:21;;;;;;;9.98;5.35;;;25.50;86.10;;;;;;5064421;28;20044;-74
2023/01/15 13:35:09;;;;;;;9.32;5.00;;;25.70;87.30;;;;;;5061003;28;20061;-75
2023/01/15 13:37:48;;;;;;;10.50;5.85;;;26.30;87.40;;;;;;5067617;28;20032;-75
2023/01/15 13:40:33;;;;;;;11.77;6.57;;;26.70;86.80;;;;;;5065937;28;20593;-75
2023/01/15 13:43:01;;;;;;;9.18;5.63;;;27.40;85.30;;;;;;5061063;28;20025;-74
2023/01/15 13:45:35;;;;;;;12.13;5.75;;;27.10;84.80;;;;;;5061072;28;20025;-75
2023/01/15 13:48:17;;;;;;;10.30;5.82;;;27.50;84.50;;;;;;5060327;28;20034;-75
2023/01/15 13:51:00;;;;;;;20.58;11.85;;;27.50;84.60;;;;;;5061671;28;20077;-74
2023/01/15 13:53:38;;;;;;;9.40;4.90;;;26.80;85.70;;;;;;5060738;28;20379;-74
2023/01/15 13:56:13;;;;;;;9.25;6.22;;;26.80;85.90;;;;;;5059054;28;20025;-74
2023/01/15 13:58:55;;;;;;;9.85;5.55;;;26.40;86.80;;;;;;5064726;28;20028;-75
2023/01/15 14:01:24;;;;;;;9.00;4.93;;;26.60;87.20;;;;;;5046333;28;20510;-75
2023/01/15 14:04:08;;;;;;;11.48;6.03;;;27.30;86.10;;;;;;5062300;28;20085;-74
2023/01/15 14:06:48;;;;;;;8.45;4.93;;;27.30;86.10;;;;;;5062052;28;20029;-73
2023/01/15 14:09:23;;;;;;;10.25;5.03;;;27.00;86.30;;;;;;5060090;28;20036;-75
2023/01/15 14:12:08;;;;;;;9.48;4.90;;;25.20;88.60;;;;;;5062228;28;20115;-73